createdAt,value
2018-12-01T00:03:25.600Z,81.976318
2018-12-01T00:06:53.527Z,81.976318
2018-12-01T00:10:21.411Z,81.976318
2018-12-01T00:13:49.287Z,81.976318
2018-12-01T00:17:17.146Z,82.080078
2018-12-01T00:20:46.023Z,82.080078
2018-12-01T00:24:13.919Z,82.080078
2018-12-01T00:27:41.786Z,82.080078
2018-12-01T00:31:09.760Z,82.080078
2018-12-01T00:34:37.642Z,82.183838
2018-12-01T00:38:05.526Z,82.080078
2018-12-01T00:41:33.393Z,82.183838
2018-12-01T00:45:01.279Z,82.183838
2018-12-01T00:48:29.152Z,82.183838
2018-12-01T00:51:57.062Z,82.183838
2018-12-01T00:55:24.909Z,82.287598
2018-12-01T00:58:52.792Z,82.391357
2018-12-01T01:02:20.656Z,82.287598
2018-12-01T01:05:48.530Z,82.391357
2018-12-01T01:09:16.408Z,82.391357
2018-12-01T01:12:44.385Z,82.391357
2018-12-01T01:16:12.254Z,82.391357
2018-12-01T01:19:40.124Z,82.391357
2018-12-01T01:23:08.829Z,82.495117
2018-12-01T01:26:36.710Z,82.495117
2018-12-01T01:30:04.638Z,82.495117
2018-12-01T01:33:32.515Z,82.495117
2018-12-01T01:37:00.372Z,82.598877
2018-12-01T01:40:28.259Z,82.598877
2018-12-01T01:43:56.169Z,82.598877
2018-12-01T01:47:25.030Z,82.598877
2018-12-01T01:50:52.914Z,82.598877
2018-12-01T01:54:20.787Z,82.598877
2018-12-01T01:57:48.663Z,82.598877
2018-12-01T02:01:16.582Z,82.598877
2018-12-01T02:04:44.457Z,82.598877
2018-12-01T02:08:12.339Z,82.702637
2018-12-01T02:11:40.193Z,82.702637
2018-12-01T02:15:08.861Z,82.702637
2018-12-01T02:18:36.734Z,82.806396
2018-12-01T02:22:04.596Z,82.806396
2018-12-01T02:25:32.477Z,82.806396
2018-12-01T02:29:00.353Z,82.910156
2018-12-01T02:32:28.232Z,83.013916
2018-12-01T02:35:56.317Z,83.013916
2018-12-01T02:39:24.188Z,83.117676
2018-12-01T02:42:52.077Z,83.221436
2018-12-01T02:46:19.934Z,83.325195
2018-12-01T02:49:47.810Z,83.428955
2018-12-01T02:53:15.691Z,83.532715
2018-12-01T02:56:44.873Z,83.679199
2018-12-01T03:00:12.753Z,83.886719
2018-12-01T03:03:41.625Z,83.990479
2018-12-01T03:07:09.493Z,83.990479
2018-12-01T03:10:37.376Z,84.094238
2018-12-01T03:14:05.370Z,84.197998
2018-12-01T03:17:33.236Z,84.301758
2018-12-01T03:21:01.117Z,84.405518
2018-12-01T03:24:28.999Z,84.301758
2018-12-01T03:27:56.865Z,84.405518
2018-12-01T03:31:24.742Z,84.405518
2018-12-01T03:34:52.627Z,84.405518
2018-12-01T03:38:20.496Z,84.405518
2018-12-01T03:41:48.352Z,84.509277
2018-12-01T03:45:16.233Z,84.405518
2018-12-01T03:48:44.170Z,84.405518
2018-12-01T03:52:13.083Z,84.405518
2018-12-01T03:55:40.960Z,84.405518
2018-12-01T03:59:08.859Z,84.405518
2018-12-01T04:02:36.773Z,84.405518
2018-12-01T04:06:04.635Z,84.405518
2018-12-01T04:09:32.570Z,84.509277
2018-12-01T04:13:00.534Z,84.613037
2018-12-01T04:16:28.415Z,84.613037
2018-12-01T04:19:56.315Z,84.716797
2018-12-01T04:23:24.214Z,84.857178
2018-12-01T04:26:52.076Z,84.960938
2018-12-01T04:30:20.952Z,84.960938
2018-12-01T04:33:48.884Z,85.064697
2018-12-01T04:37:17.724Z,85.168457
2018-12-01T04:40:45.768Z,85.168457
2018-12-01T04:44:13.704Z,85.27832
2018-12-01T04:47:41.600Z,85.48584
2018-12-01T04:51:09.499Z,85.5896
2018-12-01T04:54:37.867Z,85.5896
2018-12-01T04:58:05.749Z,85.693359
2018-12-01T05:01:33.659Z,85.693359
2018-12-01T05:05:01.719Z,85.797119
2018-12-01T05:08:29.597Z,85.900879
2018-12-01T05:11:57.453Z,85.900879
2018-12-01T05:15:25.347Z,86.004639
2018-12-01T05:18:53.231Z,86.004639
2018-12-01T05:22:21.102Z,86.108398
2018-12-01T05:25:48.993Z,86.212158
2018-12-01T05:29:16.872Z,86.212158
2018-12-01T05:32:44.761Z,86.212158
2018-12-01T05:36:12.624Z,86.212158
2018-12-01T05:39:40.516Z,86.212158
2018-12-01T05:43:08.396Z,86.212158
2018-12-01T05:46:36.827Z,86.212158
2018-12-01T05:50:04.139Z,86.212158
2018-12-01T05:53:32.026Z,86.212158
2018-12-01T05:56:59.892Z,86.212158
2018-12-01T06:00:27.768Z,86.169434
2018-12-01T06:03:55.648Z,86.169434
2018-12-01T06:07:23.514Z,86.169434
2018-12-01T06:10:51.397Z,86.169434
2018-12-01T06:14:19.278Z,86.169434
2018-12-01T06:17:47.138Z,86.169434
2018-12-01T06:21:15.024Z,86.169434
2018-12-01T06:24:42.907Z,86.169434
2018-12-01T06:28:10.772Z,86.169434
2018-12-01T06:31:38.652Z,86.273193
2018-12-01T06:35:06.526Z,86.236572
2018-12-01T06:38:34.394Z,86.236572
2018-12-01T06:42:02.268Z,86.340332
2018-12-01T06:45:30.142Z,86.340332
2018-12-01T06:48:58.009Z,86.340332
2018-12-01T06:52:25.882Z,86.340332
2018-12-01T06:55:53.756Z,86.444092
2018-12-01T06:59:21.616Z,86.340332
2018-12-01T07:02:49.515Z,86.444092
2018-12-01T07:06:17.459Z,86.444092
2018-12-01T07:09:45.321Z,86.51123
2018-12-01T07:13:13.202Z,86.407471
2018-12-01T07:16:41.079Z,86.407471
2018-12-01T07:20:08.943Z,86.407471
2018-12-01T07:23:36.824Z,86.407471
2018-12-01T07:27:04.702Z,86.297607
2018-12-01T07:30:32.568Z,86.157227
2018-12-01T07:34:00.453Z,86.157227
2018-12-01T07:37:29.331Z,86.157227
2018-12-01T07:40:59.255Z,86.053467
2018-12-01T07:44:27.133Z,86.053467
2018-12-01T07:47:56.044Z,86.053467
2018-12-01T07:51:23.874Z,85.949707
2018-12-01T07:54:51.751Z,85.913086
2018-12-01T07:58:19.628Z,85.809326
2018-12-01T08:01:47.495Z,85.705566
2018-12-01T08:05:15.379Z,85.705566
2018-12-01T08:08:43.284Z,85.705566
2018-12-01T08:12:11.155Z,85.455322
2018-12-01T08:15:39.039Z,85.455322
2018-12-01T08:19:06.929Z,85.351562
2018-12-01T08:22:34.800Z,85.144043
2018-12-01T08:26:02.684Z,84.796143
2018-12-01T08:29:30.568Z,84.484863
2018-12-01T08:32:58.473Z,84.130859
2018-12-01T08:36:26.358Z,83.782959
2018-12-01T08:39:54.269Z,83.782959
2018-12-01T08:43:22.141Z,83.679199
2018-12-01T08:46:50.054Z,83.782959
2018-12-01T08:50:17.938Z,83.642578
2018-12-01T08:53:45.811Z,83.538818
2018-12-01T08:57:13.700Z,83.538818
2018-12-01T09:00:41.600Z,83.538818
2018-12-01T09:04:09.474Z,83.642578
2018-12-01T09:07:38.373Z,83.538818
2018-12-01T09:11:06.252Z,83.502197
2018-12-01T09:14:34.141Z,83.398438
2018-12-01T09:18:02.019Z,83.190918
2018-12-01T09:21:29.956Z,83.154297
2018-12-01T09:24:57.831Z,82.946777
2018-12-01T09:28:25.737Z,82.843018
2018-12-01T09:31:53.619Z,82.702637
2018-12-01T09:35:21.531Z,82.800293
2018-12-01T09:38:49.406Z,82.800293
2018-12-01T09:42:17.288Z,82.904053
2018-12-01T09:45:48.147Z,82.800293
2018-12-01T09:49:16.011Z,82.800293
2018-12-01T09:52:43.903Z,82.659912
2018-12-01T09:56:11.791Z,82.556152
2018-12-01T09:59:39.653Z,82.312012
2018-12-01T10:03:07.538Z,82.312012
2018-12-01T10:06:36.410Z,82.104492
2018-12-01T10:10:05.273Z,81.964111
2018-12-01T10:13:33.190Z,81.860352
2018-12-01T10:17:01.068Z,81.756592
2018-12-01T10:20:28.943Z,81.964111
2018-12-01T10:23:56.803Z,81.964111
2018-12-01T10:27:24.681Z,82.067871
2018-12-01T10:30:52.572Z,82.067871
2018-12-01T10:34:20.449Z,82.171631
2018-12-01T10:37:48.327Z,82.067871
2018-12-01T10:41:16.191Z,82.275391
2018-12-01T10:44:44.163Z,82.23877
2018-12-01T10:48:12.305Z,82.23877
2018-12-01T10:51:40.181Z,82.03125
2018-12-01T10:55:08.066Z,82.03125
2018-12-01T10:58:35.942Z,82.507324
2018-12-01T11:02:03.804Z,82.507324
2018-12-01T11:05:31.696Z,82.403564
2018-12-01T11:08:59.574Z,82.507324
2018-12-01T11:12:27.434Z,82.507324
2018-12-01T11:15:56.314Z,82.611084
2018-12-01T11:19:24.189Z,82.922363
2018-12-01T11:22:52.061Z,82.922363
2018-12-01T11:26:21.928Z,82.922363
2018-12-01T11:29:49.814Z,83.026123
2018-12-01T11:33:17.800Z,83.026123
2018-12-01T11:36:46.672Z,83.233643
2018-12-01T11:40:15.312Z,83.233643
2018-12-01T11:43:42.432Z,83.435059
2018-12-01T11:47:10.306Z,83.331299
2018-12-01T11:50:38.198Z,83.331299
2018-12-01T11:54:07.072Z,83.331299
2018-12-01T11:57:34.935Z,83.233643
2018-12-01T12:01:02.819Z,83.129883
2018-12-01T12:04:30.700Z,83.129883
2018-12-01T12:07:58.561Z,83.233643
2018-12-01T12:11:26.440Z,83.233643
2018-12-01T12:14:54.317Z,83.233643
2018-12-01T12:18:23.174Z,83.129883
2018-12-01T12:21:52.048Z,82.983398
2018-12-01T12:25:19.968Z,82.983398
2018-12-01T12:28:47.854Z,82.885742
2018-12-01T12:32:15.960Z,82.983398
2018-12-01T12:35:43.938Z,82.843018
2018-12-01T12:39:11.921Z,82.843018
2018-12-01T12:42:39.789Z,82.843018
2018-12-01T12:46:07.692Z,82.946777
2018-12-01T12:49:36.235Z,82.946777
2018-12-01T12:53:05.038Z,82.739258
2018-12-01T13:30:15.556Z,58.050537
2018-12-01T13:34:44.248Z,52.056885
2018-12-01T13:38:12.182Z,69.750977
2018-12-01T13:41:40.204Z,79.504395
2018-12-01T13:45:08.080Z,84.802246
2018-12-01T13:48:36.026Z,87.1521
2018-12-01T13:52:03.891Z,88.323975
2018-12-01T13:55:31.855Z,88.739014
2018-12-01T13:58:59.724Z,89.251709
2018-12-01T14:02:27.583Z,89.562988
2018-12-01T14:05:55.458Z,89.501953
2018-12-01T14:09:23.340Z,89.709473
2018-12-01T14:12:51.204Z,89.294434
2018-12-01T14:16:19.073Z,89.398193
2018-12-01T14:19:46.956Z,89.190674
2018-12-01T14:23:14.827Z,89.501953
2018-12-01T14:26:43.690Z,89.605713
2018-12-01T14:30:11.570Z,89.953613
2018-12-01T14:33:39.443Z,90.161133
2018-12-01T14:37:07.299Z,90.826416
2018-12-01T14:40:35.179Z,91.174316
2018-12-01T14:44:03.060Z,92.462158
2018-12-01T14:47:30.914Z,92.608643
2018-12-01T14:50:58.789Z,93.225098
2018-12-01T14:54:26.664Z,93.621826
2018-12-01T14:57:54.546Z,95.178223
2018-12-01T15:01:22.416Z,95.532227
2018-12-01T15:04:51.304Z,95.947266
2018-12-01T15:08:19.178Z,95.88623
2018-12-01T15:11:47.036Z,96.405029
2018-12-01T15:15:15.911Z,96.655273
2018-12-01T15:18:44.782Z,96.600342
2018-12-01T15:22:13.629Z,96.911621
2018-12-01T15:25:41.505Z,97.161865
2018-12-01T15:29:31.615Z,98.468018
2018-12-01T15:32:59.492Z,98.468018
2018-12-01T15:36:27.349Z,98.571777
2018-12-01T15:39:56.218Z,98.571777
2018-12-01T15:43:24.093Z,98.779297
2018-12-01T15:46:51.953Z,99.249268
2018-12-01T15:50:19.829Z,99.456787
2018-12-01T15:53:47.706Z,99.310303
2018-12-01T15:57:15.561Z,99.157715
2018-12-01T16:00:44.425Z,99.053955
2018-12-01T16:04:12.316Z,98.791504
2018-12-01T16:07:40.172Z,98.791504
2018-12-01T16:11:08.059Z,98.791504
2018-12-01T16:14:37.930Z,98.846436
2018-12-01T16:18:05.790Z,98.742676
2018-12-01T16:21:33.660Z,98.742676
2018-12-01T16:25:01.537Z,98.596191
2018-12-01T16:28:29.411Z,98.284912
2018-12-01T16:31:57.286Z,97.869873
2018-12-01T16:35:25.162Z,97.662354
2018-12-01T16:38:53.037Z,97.558594
2018-12-01T16:42:20.896Z,97.662354
2018-12-01T16:45:48.765Z,97.662354
2018-12-01T16:49:16.648Z,97.558594
2018-12-01T16:52:44.517Z,97.662354
2018-12-01T16:56:12.391Z,97.766113
2018-12-01T16:59:40.264Z,97.869873
2018-12-01T17:03:08.148Z,97.869873
2018-12-01T17:06:36.010Z,97.869873
2018-12-01T17:10:03.884Z,98.077393
2018-12-01T17:13:31.766Z,98.077393
2018-12-01T17:16:59.628Z,97.869873
2018-12-01T17:20:27.519Z,97.869873
2018-12-01T17:23:56.387Z,97.869873
2018-12-01T17:27:24.250Z,97.869873
2018-12-01T17:30:53.118Z,97.869873
2018-12-01T17:34:20.999Z,97.766113
2018-12-01T17:37:48.861Z,97.766113
2018-12-01T17:41:16.739Z,97.723389
2018-12-01T17:44:45.684Z,97.619629
2018-12-01T17:48:15.653Z,97.515869
2018-12-01T17:51:43.514Z,97.412109
2018-12-01T17:55:11.389Z,97.30835
2018-12-01T17:58:39.264Z,97.412109
2018-12-01T18:02:07.123Z,97.515869
2018-12-01T18:05:42.547Z,97.515869
2018-12-01T18:09:16.738Z,97.412109
2018-12-01T18:12:47.663Z,97.412109
2018-12-01T18:16:15.542Z,97.412109
2018-12-01T18:19:44.420Z,97.30835
2018-12-01T18:23:12.308Z,97.412109
2018-12-01T18:26:40.174Z,97.412109
2018-12-01T18:30:09.093Z,97.662354
2018-12-01T18:33:37.026Z,97.869873
2018-12-01T18:37:04.928Z,97.973633
2018-12-01T18:40:32.807Z,97.973633
2018-12-01T18:44:00.681Z,97.973633
2018-12-01T18:47:28.541Z,97.930908
2018-12-01T18:50:56.690Z,97.973633
2018-12-01T18:54:24.576Z,97.973633
2018-12-01T18:57:52.455Z,98.077393
2018-12-01T19:01:20.320Z,98.181152
2018-12-01T19:04:48.211Z,98.284912
2018-12-01T19:08:16.089Z,98.284912
2018-12-01T19:11:43.953Z,98.284912
2018-12-01T19:15:11.836Z,98.284912
2018-12-01T19:18:39.729Z,98.284912
2018-12-01T19:22:07.592Z,98.181152
2018-12-01T19:25:35.595Z,98.284912
2018-12-01T19:29:03.492Z,98.181152
2018-12-01T19:32:32.372Z,98.327637
2018-12-01T19:36:00.253Z,98.431396
2018-12-01T19:39:28.133Z,98.742676
2018-12-01T19:42:57.015Z,98.803711
2018-12-01T19:46:24.874Z,98.596191
2018-12-01T19:49:52.767Z,98.388672
2018-12-01T19:53:20.644Z,98.284912
2018-12-01T19:56:48.500Z,98.181152
2018-12-01T20:00:16.374Z,98.077393
2018-12-01T20:03:44.262Z,97.869873
2018-12-01T20:07:12.122Z,97.766113
2018-12-01T20:10:40.998Z,97.766113
2018-12-01T20:14:08.875Z,97.662354
2018-12-01T20:17:36.746Z,97.558594
2018-12-01T20:21:04.623Z,97.558594
2018-12-01T20:24:32.514Z,97.412109
2018-12-01T20:28:00.372Z,97.30835
2018-12-01T20:31:28.251Z,97.20459
2018-12-01T20:34:56.131Z,97.20459
2018-12-01T20:38:24.001Z,97.10083
2018-12-01T20:41:51.882Z,97.10083
2018-12-01T20:45:19.758Z,97.10083
2018-12-01T20:48:47.638Z,97.20459
2018-12-01T20:52:15.509Z,97.20459
2018-12-01T20:55:43.386Z,97.10083
2018-12-01T20:59:11.268Z,97.20459
2018-12-01T21:02:40.118Z,97.20459
2018-12-01T21:06:08.011Z,97.10083
2018-12-01T21:09:35.975Z,97.10083
2018-12-01T21:13:03.847Z,97.20459
2018-12-01T21:16:31.734Z,97.30835
2018-12-01T21:20:00.610Z,97.30835
2018-12-01T21:23:28.478Z,97.20459
2018-12-01T21:26:56.360Z,97.20459
2018-12-01T21:30:24.263Z,97.20459
2018-12-01T21:33:52.215Z,97.30835
2018-12-01T21:37:20.103Z,97.20459
2018-12-01T21:40:48.027Z,97.20459
2018-12-01T21:44:16.750Z,97.30835
2018-12-01T21:47:45.755Z,97.10083
2018-12-01T21:51:13.640Z,96.746826
2018-12-01T21:54:41.530Z,96.228027
2018-12-01T21:58:09.402Z,96.331787
2018-12-01T22:01:37.326Z,96.374512
2018-12-01T22:05:05.240Z,96.478271
2018-12-01T22:08:33.108Z,96.789551
2018-12-01T22:12:00.994Z,96.893311
2018-12-01T22:15:29.132Z,96.893311
2018-12-01T22:18:57.013Z,97.143555
2018-12-01T22:22:24.872Z,97.039795
2018-12-01T22:25:52.762Z,97.143555
2018-12-01T22:29:20.639Z,97.143555
2018-12-01T22:32:49.049Z,97.039795
2018-12-01T22:36:16.929Z,97.039795
2018-12-01T22:39:44.806Z,97.143555
2018-12-01T22:43:14.472Z,97.143555
2018-12-01T22:46:42.359Z,97.247314
2018-12-01T22:50:10.215Z,97.247314
2018-12-01T22:53:38.092Z,97.143555
2018-12-01T22:57:05.973Z,97.039795
2018-12-01T23:00:33.858Z,96.936035
2018-12-01T23:04:01.716Z,96.832275
2018-12-01T23:07:29.604Z,96.728516
2018-12-01T23:10:57.477Z,96.624756
2018-12-01T23:14:26.330Z,96.673584
2018-12-01T23:17:55.189Z,96.881104
2018-12-01T23:21:24.114Z,96.984863
2018-12-01T23:24:52.006Z,96.984863
2018-12-01T23:28:19.878Z,97.131348
2018-12-01T23:31:48.760Z,97.131348
2018-12-01T23:35:16.632Z,97.338867
2018-12-01T23:38:44.508Z,97.692871
2018-12-01T23:42:12.395Z,97.796631
2018-12-01T23:45:41.249Z,97.796631
2018-12-01T23:49:09.123Z,97.900391
2018-12-01T23:52:37.001Z,97.796631
2018-12-01T23:56:04.864Z,97.589111
2018-12-01T23:59:32.749Z,97.796631
